• Join FlightAware (Why Join?)
  • Login
  • US Flag 
05:11PM EST


 

Airport Tracker/Info


-or-


 

Live Flight TrackerFlight Track Log ✈ FLG3735 ✈ 14-May-2013 ✈ KDTW - KALB

Flight Track Log - Related Links

Times and Time Zones

All times are in EDT time to prevent confusion due to time zone crossing. See the FLG3735 flight status page for this flight to view local times or setup timezone preferences in your user account.

Time Position Orientation Groundspeed Altitude Reporting Facility
EDT Latitude Longitude Course Direction KTS MPH feet Rate Location/Type
10:06PM 42.2017 -83.3583 90° East 153 176 1,200  Level Cleveland Center
10:07PM 42.1431 -83.3583 180° South 204 235 3,100 1,560 Climbing Cleveland Center
10:08PM 42.0767 -83.3500 175° South 249 287 4,900 1,740 Climbing Cleveland Center
10:09PM 42.3188 -82.7288 82° East  Level FlightAware Approximate
10:09PM 42.0431 -83.2703 120° Southeast 318 366 6,700  Level Cleveland Center
10:09PM 42.0522 -83.2397 68° East 291 335 7,400 2,580 Climbing Cleveland Center
10:10PM 42.3366 -82.5702 71° East  Level FlightAware Approximate
10:10PM 42.0919 -83.1436 61° Northeast 311 358 10,100  Level Cleveland Center
10:11PM 42.3667 -82.4193 90° East  Level FlightAware Approximate
10:11PM 42.1381 -83.0389 59° Northeast 311 358 11,300  Level Cleveland Center
10:12PM 42.1822 -82.9200 63° Northeast 326 375 13,000 1,740 Climbing Cleveland Center
10:13PM 42.2303 -82.8014 61° Northeast 347 399 14,800 1,620 Climbing Cleveland Center
10:14PM 42.2786 -82.6767 62° Northeast 359 413 16,300 1,320 Climbing Cleveland Center
10:15PM 42.3267 -82.5519 62° Northeast 365 420 17,500 1,200 Climbing Cleveland Center
10:16PM 42.3664 -82.4183 68° East 365 420 18,700 1,080 Climbing Cleveland Center
10:17PM 42.3603 -82.2608 93° East 382 440 19,700 960 Climbing Cleveland Center
10:18PM 42.3519 -82.1144 94° East 412 474 20,700 1,140 Climbing Cleveland Center
10:19PM 42.3458 -81.9514 93° East 432 497 22,000 840 Climbing Cleveland Center
10:20PM 42.3375 -81.7658 93° East 432 497 22,400 480 Climbing Cleveland Center
10:21PM 42.3286 -81.5942 94° East 449 517 23,000 540 Climbing Cleveland Center
10:22PM 42.3217 -81.4200 93° East 460 529 23,500 540 Climbing Cleveland Center
10:23PM 42.3125 -81.2403 94° East 480 552 24,100 660 Climbing Cleveland Center
10:24PM 42.3028 -81.0603 94° East 480 552 24,900 720 Climbing Cleveland Center
10:25PM 42.2953 -80.8808 93° East 475 547 25,600 660 Climbing Cleveland Center
10:26PM 42.2850 -80.7067 95° East 472 543 26,300 600 Climbing Cleveland Center
10:27PM 42.2767 -80.5439 94° East 481 554 26,900 600 Climbing Cleveland Center
10:28PM 42.2661 -80.3614 94° East 481 554 27,600 660 Climbing Cleveland Center
10:29PM 42.2553 -80.1847 95° East 481 554 28,300 660 Climbing Cleveland Center
10:30PM 42.2711 -80.0108 83° East 475 547 29,000 720 Climbing Cleveland Center
10:31PM 42.2908 -79.8197 82° East 469 540 29,800 720 Climbing Cleveland Center
10:32PM 42.3083 -79.6456 82° East 469 540 30,500 600 Climbing Cleveland Center
10:33PM 42.3236 -79.4767 83° East 463 533 31,000 240 Climbing Cleveland Center
10:34PM 42.3425 -79.2994 82° East 468 539 31,000  Level Cleveland Center
10:35PM 42.3614 -79.1219 82° East 468 539 31,000  Level Cleveland Center
10:36PM 42.3756 -78.9389 84° East 475 547 31,000  Level Cleveland Center
10:37PM 42.3942 -78.7811 81° East 480 552 31,000  Level Cleveland Center
10:38PM 42.4097 -78.5978 83° East 486 559 31,000  Level Cleveland Center
10:39PM 42.4275 -78.4200 82° East 480 552 31,000  Level Cleveland Center
10:40PM 42.4428 -78.2422 83° East 480 552 31,000  Level Cleveland Center
10:41PM 42.4578 -78.0614 84° East 480 552 31,000  Level Cleveland Center
10:42PM 42.4744 -77.8806 83° East 485 558 31,000  Level Cleveland Center
10:43PM 42.4889 -77.7056 84° East 480 552 31,000 -540 Level Cleveland Center
10:45PM 42.5181 -77.3311 84° East 477 549 29,400 -720 Descending Boston Center
10:46PM 42.5317 -77.1603 84° East 472 543 29,000 -240 Descending Boston Center
10:47PM 42.5450 -76.9836 84° East 467 537 29,000  Level Boston Center
10:48PM 42.5581 -76.8097 84° East 462 532 29,000  Level Boston Center
10:49PM 42.5733 -76.6275 83° East 467 537 29,000  Level Boston Center
10:50PM 42.5861 -76.4478 84° East 467 537 29,000  Level Boston Center
10:51PM 42.6006 -76.2681 84° East 472 543 29,000  Level Boston Center
10:52PM 42.6122 -76.1053 84° East 478 550 29,000  Level Boston Center
10:53PM 42.6242 -75.9281 85° East 478 550 29,000 -300 Level Boston Center
10:54PM 42.6358 -75.7453 85° East 478 550 28,400 -1,560 Descending Boston Center
10:55PM 42.6469 -75.5678 85° East 478 550 25,900 -2,460 Descending Boston Center
10:56PM 42.6597 -75.4019 84° East 457 526 23,500 -2,400 Descending Boston Center
10:57PM 42.6658 -75.2442 87° East 438 504 21,200 -2,340 Descending Boston Center
10:58PM 42.6783 -75.0753 84° East 431 496 18,900 -2,280 Descending Boston Center
10:59PM 42.6858 -74.9286 86° East 418 481 16,700 -2,220 Descending Boston Center
11:00PM 42.6950 -74.7847 85° East 383 441 14,500 -2,220 Descending Boston Center
11:01PM 42.7044 -74.6297 85° East 373 429 12,300 -2,280 Descending Boston Center
11:02PM 42.7075 -74.5819 85° East 371 427 11,500 -1,320 Descending Boston Center
11:02PM 42.7108 -74.5086 86° East 363 418 11,000 -480 Descending Boston Center
11:03PM 42.7164 -74.4408 84° East 341 392 11,000  Level Boston Center
11:03PM 42.7175 -74.3675 89° East 342 394 11,000 -240 Level Boston Center
11:04PM 42.7058 -74.3189 108° East 316 364 10,800 -900 Descending Boston Center
11:04PM 42.6961 -74.2706 105° East 314 361 10,100 -1,920 Descending Boston Center
11:05PM 42.6825 -74.2139 108° East 282 325 8,900 -2,340 Descending Boston Center
11:05PM 42.6689 -74.1542 107° East 296 341 7,800 -2,160 Descending Boston Center
11:06PM 42.6531 -74.0917 109° East 290 334 6,500 -1,800 Descending Boston Center
11:06PM 42.6492 -74.0661 102° East 289 333 6,000 -1,680 Descending Boston Center
11:07PM 42.6317 -73.9922 108° East 278 320 4,800 -1,740 Descending Boston Center
11:07PM 42.6278 -73.9667 102° East 279 321 4,300 -1,740 Descending Boston Center
11:08PM 42.6161 -73.9072 105° East 238 274 3,100 -1,740 Descending Boston Center
11:08PM 42.6164 -73.8761 89° East 259 298 2,600 -1,320 Descending Boston Center
11:09PM 42.6233 -73.8228 80° East 205 236 1,800 -300 Descending Boston Center
11:09PM 42.5928 -73.7742 130° Southeast 250 288 2,300 1,320 Climbing Boston Center